Time;durP1;ratioP1;P1;durP2;ratioP2;P2;SDS_P1;SDS_P2;PMS_P1;PMS_P2;Temp;Humidity;BMP_temperature;BMP_pressure;BME280_temperature;BME280_humidity;BME280_pressure;Samples;Min_cycle;Max_cycle;Signal;HPM_P1;HPM_P2
2022/06/26 00:03:34;;;;;;;11.52;5.43;;;;;;;;;;10416653;28;20005;-77
2022/06/26 00:08:34;;;;;;;11.07;5.75;;;;;;;;;;10417224;28;20430;-75
2022/06/26 00:13:34;;;;;;;14.50;6.40;;;;;;;;;;10390115;28;20423;-72
2022/06/26 00:18:35;;;;;;;13.00;5.93;;;;;;;;;;10411061;28;20025;-73
2022/06/26 00:23:35;;;;;;;12.80;5.37;;;;;;;;;;10384337;28;20047;-74
2022/06/26 00:28:35;;;;;;;13.00;5.13;;;;;;;;;;10397144;28;20481;-76
2022/06/26 00:33:35;;;;;;;12.60;6.20;;;;;;;;;;10402870;28;20029;-73
2022/06/26 00:38:36;;;;;;;15.88;5.07;;;;;;;;;;10394247;28;20103;-74
2022/06/26 00:43:36;;;;;;;16.75;5.65;;;;;;;;;;10404222;28;20056;-73
2022/06/26 00:48:36;;;;;;;12.32;5.50;;;;;;;;;;10394991;28;20079;-73
2022/06/26 00:53:37;;;;;;;13.43;5.00;;;;;;;;;;10393822;28;20021;-68
2022/06/26 00:58:37;;;;;;;8.55;4.28;;;;;;;;;;10391328;28;20025;-73
2022/06/26 01:03:37;;;;;;;10.40;4.20;;;;;;;;;;10382771;28;20381;-75
2022/06/26 01:08:38;;;;;;;15.82;5.32;;;;;;;;;;10401026;28;20067;-71
2022/06/26 01:13:38;;;;;;;9.75;4.78;;;;;;;;;;10401300;28;20029;-73
2022/06/26 01:18:38;;;;;;;9.43;5.28;;;;;;;;;;10417656;28;20036;-77
2022/06/26 01:23:39;;;;;;;9.63;5.35;;;;;;;;;;10394428;28;20029;-73
2022/06/26 01:28:39;;;;;;;11.03;5.23;;;;;;;;;;10383861;28;20117;-70
2022/06/26 01:33:40;;;;;;;9.50;4.68;;;;;;;;;;10379686;28;20337;-74
2022/06/26 01:38:40;;;;;;;12.85;6.50;;;;;;;;;;10382426;28;20033;-70
2022/06/26 01:43:40;;;;;;;11.20;5.67;;;;;;;;;;10394736;28;20045;-70
2022/06/26 01:48:41;;;;;;;10.82;5.47;;;;;;;;;;10410029;28;20802;-73
2022/06/26 01:53:41;;;;;;;10.93;5.50;;;;;;;;;;10415970;28;20471;-71
2022/06/26 01:58:41;;;;;;;11.43;5.95;;;;;;;;;;10400670;28;20033;-70
2022/06/26 02:03:42;;;;;;;9.33;5.40;;;;;;;;;;10414462;28;20025;-71
2022/06/26 02:08:42;;;;;;;11.60;4.80;;;;;;;;;;10389391;28;20063;-74
2022/06/26 02:13:43;;;;;;;13.27;5.60;;;;;;;;;;10415119;28;20079;-75
2022/06/26 02:18:45;;;;;;;10.20;5.65;;;;;;;;;;10382271;28;20029;-76
2022/06/26 02:23:46;;;;;;;7.20;4.38;;;;;;;;;;10381328;28;20029;-74
2022/06/26 02:28:46;;;;;;;7.43;3.88;;;;;;;;;;10381115;28;20411;-74
2022/06/26 02:33:47;;;;;;;9.52;4.00;;;;;;;;;;10391520;28;20057;-70
2022/06/26 02:38:47;;;;;;;9.30;3.70;;;;;;;;;;10416775;28;20033;-70
2022/06/26 02:43:47;;;;;;;10.80;3.57;;;;;;;;;;10401466;28;20141;-73
2022/06/26 02:48:47;;;;;;;9.85;3.72;;;;;;;;;;10385070;28;20711;-69
2022/06/26 02:53:48;;;;;;;13.75;4.55;;;;;;;;;;10397611;28;20040;-75
2022/06/26 02:58:48;;;;;;;8.02;4.45;;;;;;;;;;10379145;28;20090;-74
2022/06/26 03:03:48;;;;;;;8.68;4.25;;;;;;;;;;10417943;28;20028;-73
2022/06/26 03:08:48;;;;;;;15.07;5.00;;;;;;;;;;10432034;28;20083;-70
2022/06/26 03:13:49;;;;;;;9.18;5.50;;;;;;;;;;10420285;28;20505;-70
2022/06/26 03:18:49;;;;;;;12.45;6.50;;;;;;;;;;10416236;28;20022;-74
2022/06/26 03:24:01;;;;;;;11.23;5.82;;;;;;;;;;10420130;28;20649;-70
2022/06/26 03:29:04;;;;;;;11.00;5.85;;;;;;;;;;10421164;28;20061;-75
2022/06/26 03:34:04;;;;;;;10.02;5.07;;;;;;;;;;10386990;28;20037;-75
2022/06/26 03:39:04;;;;;;;19.83;5.43;;;;;;;;;;10441176;28;20051;-75
2022/06/26 03:44:06;;;;;;;11.37;4.60;;;;;;;;;;10427761;28;20053;-74
2022/06/26 03:49:06;;;;;;;6.68;4.85;;;;;;;;;;10427686;28;20124;-76
2022/06/26 03:54:06;;;;;;;16.77;4.93;;;;;;;;;;10415594;28;20032;-73
2022/06/26 03:59:06;;;;;;;13.70;5.78;;;;;;;;;;10386160;28;20060;-71
2022/06/26 04:04:07;;;;;;;10.70;6.50;;;;;;;;;;10418620;28;20028;-74
2022/06/26 04:09:07;;;;;;;15.05;6.60;;;;;;;;;;10433810;28;20476;-77
2022/06/26 04:14:08;;;;;;;8.23;5.78;;;;;;;;;;10385831;28;20499;-74
2022/06/26 04:19:08;;;;;;;18.15;7.15;;;;;;;;;;10419913;28;20037;-76
2022/06/26 04:24:08;;;;;;;13.93;5.57;;;;;;;;;;10437685;28;20063;-74
2022/06/26 04:29:09;;;;;;;8.57;5.37;;;;;;;;;;10387768;28;20713;-74
2022/06/26 04:34:09;;;;;;;12.18;6.20;;;;;;;;;;10392839;28;20546;-73
2022/06/26 04:39:09;;;;;;;8.68;5.13;;;;;;;;;;10399271;28;20029;-72
2022/06/26 04:44:11;;;;;;;12.30;4.68;;;;;;;;;;10417620;28;20593;-77
2022/06/26 04:49:11;;;;;;;9.13;4.55;;;;;;;;;;10387604;28;20049;-78
2022/06/26 04:54:11;;;;;;;10.70;4.82;;;;;;;;;;10425556;28;20509;-74
2022/06/26 04:59:11;;;;;;;10.25;5.65;;;;;;;;;;10400670;28;20017;-74
2022/06/26 05:04:12;;;;;;;11.07;5.13;;;;;;;;;;10416289;28;20025;-75
2022/06/26 05:09:12;;;;;;;9.75;5.93;;;;;;;;;;10402501;28;20023;-74
2022/06/26 05:14:13;;;;;;;9.95;5.25;;;;;;;;;;10388038;28;20025;-73
2022/06/26 05:19:13;;;;;;;12.65;5.68;;;;;;;;;;10382866;28;20087;-74
2022/06/26 05:24:13;;;;;;;17.88;7.70;;;;;;;;;;10415220;28;20013;-74
2022/06/26 05:29:14;;;;;;;18.60;8.07;;;;;;;;;;10382240;28;20460;-75
2022/06/26 05:34:14;;;;;;;14.93;7.38;;;;;;;;;;10381863;28;20016;-75
2022/06/26 05:39:14;;;;;;;10.70;7.80;;;;;;;;;;10400012;28;20025;-74
2022/06/26 05:44:14;;;;;;;10.60;6.32;;;;;;;;;;10401118;28;20049;-73
2022/06/26 05:49:15;;;;;;;13.70;5.88;;;;;;;;;;10381153;28;20686;-74
2022/06/26 05:54:15;;;;;;;12.85;5.60;;;;;;;;;;10415575;28;20472;-76
2022/06/26 05:59:15;;;;;;;10.23;5.32;;;;;;;;;;10413875;28;20103;-75
2022/06/26 06:04:15;;;;;;;10.98;4.68;;;;;;;;;;10392079;28;20126;-69
2022/06/26 06:09:16;;;;;;;5.90;4.20;;;;;;;;;;10413479;28;20013;-74
2022/06/26 06:14:16;;;;;;;8.75;3.80;;;;;;;;;;10388765;28;20014;-71
2022/06/26 06:19:16;;;;;;;8.80;4.43;;;;;;;;;;10409265;28;20068;-71
2022/06/26 06:24:17;;;;;;;5.68;3.65;;;;;;;;;;10431929;28;20423;-74
2022/06/26 06:29:17;;;;;;;12.07;5.27;;;;;;;;;;10407794;28;20032;-74
2022/06/26 06:34:17;;;;;;;13.18;4.75;;;;;;;;;;10426459;28;20287;-74
2022/06/26 06:39:20;;;;;;;7.82;3.65;;;;;;;;;;10408295;28;20515;-75
2022/06/26 06:44:20;;;;;;;10.43;3.92;;;;;;;;;;10405203;28;20106;-73
2022/06/26 06:49:20;;;;;;;9.23;3.70;;;;;;;;;;10410589;28;20741;-73
2022/06/26 06:54:21;;;;;;;8.65;3.58;;;;;;;;;;10407403;28;20475;-75
2022/06/26 06:59:21;;;;;;;8.27;4.10;;;;;;;;;;10408892;28;20033;-69
2022/06/26 07:04:21;;;;;;;7.22;3.88;;;;;;;;;;10431026;28;20024;-73
2022/06/26 07:09:21;;;;;;;11.95;3.80;;;;;;;;;;10389838;28;20806;-68
2022/06/26 07:14:22;;;;;;;5.82;3.08;;;;;;;;;;10399594;28;20565;-75
2022/06/26 07:19:22;;;;;;;10.23;3.85;;;;;;;;;;10389387;28;20030;-74
2022/06/26 07:24:22;;;;;;;11.52;3.40;;;;;;;;;;10394977;28;20029;-70
2022/06/26 07:29:22;;;;;;;8.23;2.72;;;;;;;;;;10377915;28;20376;-72
2022/06/26 07:34:24;;;;;;;9.30;2.73;;;;;;;;;;10396311;28;20088;-75
2022/06/26 07:39:24;;;;;;;6.93;2.35;;;;;;;;;;10409684;28;20422;-73
2022/06/26 07:44:24;;;;;;;5.57;2.17;;;;;;;;;;10377432;28;20053;-76
2022/06/26 07:49:25;;;;;;;12.73;2.30;;;;;;;;;;10401228;28;20025;-77
2022/06/26 07:54:25;;;;;;;5.10;2.03;;;;;;;;;;10384213;28;20021;-76
2022/06/26 07:59:25;;;;;;;5.70;2.07;;;;;;;;;;10401874;28;20033;-75
2022/06/26 08:04:25;;;;;;;9.40;2.53;;;;;;;;;;10382699;28;20019;-70
2022/06/26 08:09:26;;;;;;;9.55;2.00;;;;;;;;;;10402563;28;20108;-76
2022/06/26 08:14:26;;;;;;;5.68;1.35;;;;;;;;;;10384442;28;20037;-69
2022/06/26 08:19:26;;;;;;;5.28;1.52;;;;;;;;;;10384460;28;20029;-73
2022/06/26 08:24:29;;;;;;;3.97;1.95;;;;;;;;;;10416613;28;20018;-76
2022/06/26 08:29:29;;;;;;;3.80;1.92;;;;;;;;;;10385016;28;20024;-70
2022/06/26 08:34:30;;;;;;;6.67;2.10;;;;;;;;;;10384599;28;20549;-74
2022/06/26 08:39:34;;;;;;;8.05;2.30;;;;;;;;;;10384938;28;20027;-73
2022/06/26 08:44:37;;;;;;;5.72;2.45;;;;;;;;;;10393019;28;20124;-71
2022/06/26 08:49:37;;;;;;;7.03;2.25;;;;;;;;;;10380672;28;20116;-75
2022/06/26 08:54:37;;;;;;;5.07;1.70;;;;;;;;;;10400943;28;20033;-75
2022/06/26 08:59:38;;;;;;;5.67;1.70;;;;;;;;;;10397839;28;20029;-74
2022/06/26 09:04:38;;;;;;;4.38;1.60;;;;;;;;;;10412402;28;20020;-74
2022/06/26 09:09:42;;;;;;;3.60;1.30;;;;;;;;;;10383917;28;20014;-69
2022/06/26 09:14:43;;;;;;;2.25;1.42;;;;;;;;;;10380474;28;20408;-70
2022/06/26 09:19:44;;;;;;;5.35;1.75;;;;;;;;;;10412840;28;20725;-76
2022/06/26 09:24:57;;;;;;;4.97;1.85;;;;;;;;;;10415154;28;20033;-77
2022/06/26 09:29:58;;;;;;;5.43;2.03;;;;;;;;;;10381805;28;20550;-76
2022/06/26 09:34:58;;;;;;;5.75;1.98;;;;;;;;;;10412682;28;20025;-73
2022/06/26 09:40:02;;;;;;;8.15;1.45;;;;;;;;;;10383616;28;20041;-75
2022/06/26 09:45:03;;;;;;;4.90;1.50;;;;;;;;;;10399056;28;20110;-74
2022/06/26 09:50:05;;;;;;;4.50;1.30;;;;;;;;;;10379094;28;20461;-73
2022/06/26 09:55:06;;;;;;;5.13;1.27;;;;;;;;;;10385306;28;20078;-73
2022/06/26 10:00:07;;;;;;;1.92;1.25;;;;;;;;;;10413014;28;20020;-76
2022/06/26 10:10:32;;;;;;;3.63;1.20;;;;;;;;;;10430400;28;20115;-74
2022/06/26 10:15:35;;;;;;;1.80;0.95;;;;;;;;;;10410072;28;20594;-75
2022/06/26 10:20:36;;;;;;;4.28;1.40;;;;;;;;;;10411916;28;20032;-76
2022/06/26 10:25:37;;;;;;;2.10;0.90;;;;;;;;;;10405150;28;20489;-70
2022/06/26 10:30:37;;;;;;;2.07;1.20;;;;;;;;;;10428085;28;20024;-75
2022/06/26 10:35:39;;;;;;;3.57;1.20;;;;;;;;;;10407778;28;20463;-72
2022/06/26 10:46:01;;;;;;;1.73;0.95;;;;;;;;;;10422915;28;20076;-76
2022/06/26 10:51:02;;;;;;;2.47;1.23;;;;;;;;;;10408965;28;20483;-75
2022/06/26 10:56:03;;;;;;;3.78;2.10;;;;;;;;;;10405364;28;20032;-74
2022/06/26 11:01:04;;;;;;;3.03;0.93;;;;;;;;;;10408623;28;20355;-72
2022/06/26 11:06:06;;;;;;;1.60;1.02;;;;;;;;;;10429098;28;20110;-73
2022/06/26 11:11:08;;;;;;;2.80;1.83;;;;;;;;;;10406527;28;20024;-71
2022/06/26 11:16:09;;;;;;;6.22;1.80;;;;;;;;;;10403834;28;20108;-71
2022/06/26 11:21:09;;;;;;;6.50;2.17;;;;;;;;;;10409729;28;20024;-75
2022/06/26 11:26:11;;;;;;;7.77;2.40;;;;;;;;;;10409042;28;20051;-70
2022/06/26 11:31:18;;;;;;;4.82;2.78;;;;;;;;;;10396185;28;20022;-70
2022/06/26 11:36:19;;;;;;;5.68;2.20;;;;;;;;;;10414108;28;20057;-74
2022/06/26 11:41:20;;;;;;;6.72;2.33;;;;;;;;;;10396276;28;20989;-75
2022/06/26 11:46:21;;;;;;;7.43;2.25;;;;;;;;;;10400840;28;20114;-72
2022/06/26 11:51:22;;;;;;;4.13;1.70;;;;;;;;;;10394283;28;20519;-75
2022/06/26 11:56:31;;;;;;;17.48;2.72;;;;;;;;;;10416217;28;20437;-76
2022/06/26 12:01:35;;;;;;;5.03;2.05;;;;;;;;;;10403472;28;20138;-75
2022/06/26 12:06:36;;;;;;;8.60;2.67;;;;;;;;;;10417074;28;20055;-71
2022/06/26 12:11:40;;;;;;;4.30;1.75;;;;;;;;;;10418488;28;20021;-76
2022/06/26 12:16:44;;;;;;;4.55;2.00;;;;;;;;;;10400139;28;21402;-75
2022/06/26 12:21:46;;;;;;;6.78;2.28;;;;;;;;;;10399155;28;20023;-76
2022/06/26 12:26:46;;;;;;;4.22;2.35;;;;;;;;;;10387950;28;20020;-73
2022/06/26 12:31:48;;;;;;;7.15;2.35;;;;;;;;;;10398637;28;20029;-75
2022/06/26 12:36:50;;;;;;;16.83;3.53;;;;;;;;;;10393016;28;20036;-74
2022/06/26 12:41:50;;;;;;;4.40;2.20;;;;;;;;;;10418118;28;20699;-76
2022/06/26 12:46:50;;;;;;;3.78;2.25;;;;;;;;;;10413738;28;20025;-75
2022/06/26 12:51:52;;;;;;;3.08;1.88;;;;;;;;;;10416231;28;20033;-73
2022/06/26 12:56:52;;;;;;;4.10;1.83;;;;;;;;;;10393167;28;20072;-77
2022/06/26 13:01:52;;;;;;;4.78;2.03;;;;;;;;;;10390847;28;20019;-71
2022/06/26 13:06:53;;;;;;;3.17;1.73;;;;;;;;;;10425545;28;20028;-73
2022/06/26 13:11:53;;;;;;;6.03;1.20;;;;;;;;;;10418350;28;20030;-74
2022/06/26 13:16:53;;;;;;;8.00;2.38;;;;;;;;;;10404043;28;20056;-75
2022/06/26 13:21:54;;;;;;;3.80;1.50;;;;;;;;;;10414748;28;20509;-78
2022/06/26 13:26:55;;;;;;;4.72;2.15;;;;;;;;;;10393749;28;20112;-76
2022/06/26 13:31:55;;;;;;;4.03;1.40;;;;;;;;;;10397131;28;20028;-75
2022/06/26 13:36:55;;;;;;;5.78;1.67;;;;;;;;;;10418937;28;20017;-74
2022/06/26 13:41:55;;;;;;;3.07;2.20;;;;;;;;;;10400782;28;20041;-76
2022/06/26 13:46:56;;;;;;;3.63;1.67;;;;;;;;;;10423056;28;20033;-75
2022/06/26 13:51:56;;;;;;;6.57;3.03;;;;;;;;;;10397660;28;20036;-69
2022/06/26 13:56:56;;;;;;;3.05;1.60;;;;;;;;;;10421992;28;20024;-75
2022/06/26 14:01:57;;;;;;;6.22;1.98;;;;;;;;;;10397622;28;20078;-72
2022/06/26 14:06:57;;;;;;;4.78;2.30;;;;;;;;;;10397562;28;20028;-75
2022/06/26 14:11:57;;;;;;;4.37;2.40;;;;;;;;;;10423892;28;20026;-72
2022/06/26 14:16:58;;;;;;;3.35;1.85;;;;;;;;;;10398809;28;20025;-71
2022/06/26 14:27:17;;;;;;;5.18;2.22;;;;;;;;;;10417164;28;20021;-75
2022/06/26 14:32:17;;;;;;;5.32;1.88;;;;;;;;;;10398962;28;20025;-76
2022/06/26 14:37:17;;;;;;;4.80;1.83;;;;;;;;;;10397924;28;20029;-75
2022/06/26 14:42:18;;;;;;;4.07;1.90;;;;;;;;;;10398433;28;20045;-75
2022/06/26 14:47:18;;;;;;;4.85;2.17;;;;;;;;;;10398012;28;20025;-76
2022/06/26 14:52:20;;;;;;;4.75;1.92;;;;;;;;;;10396856;28;20579;-76
2022/06/26 14:57:21;;;;;;;5.00;1.33;;;;;;;;;;10399866;28;20033;-75
2022/06/26 15:02:21;;;;;;;1.70;1.20;;;;;;;;;;10399739;28;20344;-69
2022/06/26 15:07:21;;;;;;;3.00;1.95;;;;;;;;;;10430344;28;20049;-74
2022/06/26 15:12:22;;;;;;;2.97;1.45;;;;;;;;;;10407268;28;20027;-77
2022/06/26 15:17:22;;;;;;;3.90;1.47;;;;;;;;;;10404527;28;20070;-74
2022/06/26 15:22:22;;;;;;;5.72;2.20;;;;;;;;;;10431124;28;20028;-77
2022/06/26 15:27:22;;;;;;;2.30;1.67;;;;;;;;;;10428556;28;20029;-74
2022/06/26 15:32:23;;;;;;;2.33;1.73;;;;;;;;;;10432476;28;20494;-76
2022/06/26 15:37:25;;;;;;;5.47;1.58;;;;;;;;;;10404987;28;20509;-74
2022/06/26 15:42:26;;;;;;;5.03;1.73;;;;;;;;;;10414438;28;20052;-75
2022/06/26 15:47:26;;;;;;;5.10;1.83;;;;;;;;;;10385745;28;20033;-74
2022/06/26 15:52:26;;;;;;;2.17;1.23;;;;;;;;;;10393075;28;20391;-70
2022/06/26 15:57:27;;;;;;;8.63;1.70;;;;;;;;;;10431833;28;20009;-74
2022/06/26 16:02:27;;;;;;;6.38;1.55;;;;;;;;;;10411093;28;20017;-75
2022/06/26 16:07:27;;;;;;;2.13;1.50;;;;;;;;;;10415829;28;20052;-74
2022/06/26 16:12:28;;;;;;;3.13;1.97;;;;;;;;;;10432648;28;20017;-74
2022/06/26 16:17:28;;;;;;;7.15;2.35;;;;;;;;;;10410675;28;20290;-69
2022/06/26 16:27:47;;;;;;;4.85;2.38;;;;;;;;;;10434808;28;20029;-74
2022/06/26 16:32:47;;;;;;;2.88;1.90;;;;;;;;;;10410916;28;20797;-70
2022/06/26 16:37:48;;;;;;;6.95;2.20;;;;;;;;;;10413999;28;20491;-70
2022/06/26 16:42:48;;;;;;;6.23;2.57;;;;;;;;;;10429712;28;20041;-74
2022/06/26 16:47:48;;;;;;;4.00;1.70;;;;;;;;;;10413488;28;20415;-71
2022/06/26 16:52:49;;;;;;;4.57;2.95;;;;;;;;;;10415043;28;20406;-77
2022/06/26 16:57:50;;;;;;;8.27;2.50;;;;;;;;;;10428817;28;20033;-70
2022/06/26 17:02:50;;;;;;;4.40;2.72;;;;;;;;;;10430361;28;20486;-69
2022/06/26 17:07:51;;;;;;;6.38;2.65;;;;;;;;;;10413907;28;20613;-70
2022/06/26 17:12:51;;;;;;;4.32;2.58;;;;;;;;;;10407465;28;20036;-69
2022/06/26 17:17:51;;;;;;;5.45;2.85;;;;;;;;;;10414403;28;20048;-72
2022/06/26 17:22:52;;;;;;;5.15;2.45;;;;;;;;;;10401580;28;20084;-73
2022/06/26 17:27:52;;;;;;;3.20;2.50;;;;;;;;;;10408114;28;20510;-74
2022/06/26 17:32:52;;;;;;;3.43;2.50;;;;;;;;;;10414134;28;20528;-71
2022/06/26 17:37:54;;;;;;;4.13;3.30;;;;;;;;;;10408774;28;20040;-70
2022/06/26 17:43:05;;;;;;;6.43;3.20;;;;;;;;;;10498326;27;20595;-74
2022/06/26 17:48:06;;;;;;;7.50;2.67;;;;;;;;;;10481077;28;20053;-69
2022/06/26 17:53:06;;;;;;;6.50;2.40;;;;;;;;;;10480311;28;20029;-75
2022/06/26 17:58:07;;;;;;;4.60;2.78;;;;;;;;;;10482187;28;21914;-75
2022/06/26 18:03:07;;;;;;;7.70;2.70;;;;;;;;;;10460737;28;20022;-71
2022/06/26 18:08:07;;;;;;;3.33;1.95;;;;;;;;;;10457477;28;20025;-77
2022/06/26 18:13:09;;;;;;;4.20;2.50;;;;;;;;;;10450520;28;20918;-69
2022/06/26 18:18:10;;;;;;;3.45;2.30;;;;;;;;;;10448584;28;20032;-69
2022/06/26 18:23:11;;;;;;;4.93;2.33;;;;;;;;;;10458084;28;20024;-70
2022/06/26 18:28:11;;;;;;;5.65;2.60;;;;;;;;;;10456369;28;20142;-69
2022/06/26 18:33:12;;;;;;;7.60;3.30;;;;;;;;;;10412578;22;20577;-75
2022/06/26 18:38:12;;;;;;;4.70;3.10;;;;;;;;;;10355082;28;20018;-74
2022/06/26 18:43:12;;;;;;;6.27;3.93;;;;;;;;;;10353484;28;20354;-70
2022/06/26 18:48:13;;;;;;;4.25;3.40;;;;;;;;;;10356345;28;20276;-74
2022/06/26 18:53:13;;;;;;;5.90;3.30;;;;;;;;;;10329734;28;20021;-73
2022/06/26 18:58:13;;;;;;;5.03;2.67;;;;;;;;;;10333137;28;20030;-73
2022/06/26 19:03:14;;;;;;;8.33;3.87;;;;;;;;;;10292085;28;20655;-73
2022/06/26 19:08:14;;;;;;;9.18;3.45;;;;;;;;;;10274610;28;20041;-72
2022/06/26 19:18:33;;;;;;;5.03;3.33;;;;;;;;;;10275119;28;20161;-70
2022/06/26 19:23:34;;;;;;;5.93;2.50;;;;;;;;;;10276851;28;20018;-75
2022/06/26 19:28:34;;;;;;;4.32;1.83;;;;;;;;;;10291170;28;20541;-74
2022/06/26 19:33:34;;;;;;;2.72;2.20;;;;;;;;;;10274066;28;20058;-70
2022/06/26 19:38:35;;;;;;;4.32;3.00;;;;;;;;;;10275800;28;20046;-74
2022/06/26 19:43:35;;;;;;;6.70;3.53;;;;;;;;;;10270949;28;20065;-74
2022/06/26 19:48:35;;;;;;;4.97;3.13;;;;;;;;;;10274400;28;20031;-73
2022/06/26 19:53:37;;;;;;;4.93;3.60;;;;;;;;;;10273120;28;20031;-74
2022/06/26 19:58:37;;;;;;;4.88;3.33;;;;;;;;;;10271894;28;20085;-75
2022/06/26 20:03:56;;;;;;;7.40;3.17;;;;;;;;;;10288128;28;20485;-74
2022/06/26 20:08:56;;;;;;;11.52;3.33;;;;;;;;;;10271795;28;20034;-71
2022/06/26 20:13:56;;;;;;;8.17;4.03;;;;;;;;;;10271712;28;20034;-71
2022/06/26 20:18:57;;;;;;;6.00;3.85;;;;;;;;;;10272269;28;20021;-71
2022/06/26 20:23:58;;;;;;;4.80;3.17;;;;;;;;;;10271992;28;20386;-74
2022/06/26 20:28:58;;;;;;;7.03;3.40;;;;;;;;;;10305865;28;20028;-70
2022/06/26 20:33:58;;;;;;;5.20;3.67;;;;;;;;;;10277958;28;20724;-72
2022/06/26 20:38:59;;;;;;;3.73;2.83;;;;;;;;;;10272558;28;20027;-75
2022/06/26 20:43:59;;;;;;;3.28;2.95;;;;;;;;;;10271357;28;20266;-74
2022/06/26 20:49:00;;;;;;;7.47;3.60;;;;;;;;;;10272596;28;20109;-71
2022/06/26 20:54:00;;;;;;;7.40;3.83;;;;;;;;;;10270415;28;20023;-73
2022/06/26 20:59:01;;;;;;;9.53;3.27;;;;;;;;;;10266321;28;20027;-70
2022/06/26 21:04:01;;;;;;;5.68;3.15;;;;;;;;;;10272713;28;20018;-73
2022/06/26 21:09:02;;;;;;;8.63;3.58;;;;;;;;;;10269624;28;20598;-70
2022/06/26 21:14:03;;;;;;;3.67;2.78;;;;;;;;;;10270195;28;20049;-75
2022/06/26 21:19:04;;;;;;;3.88;2.80;;;;;;;;;;10271661;28;20025;-73
2022/06/26 21:24:05;;;;;;;7.43;3.53;;;;;;;;;;10272157;28;20023;-70
2022/06/26 21:29:06;;;;;;;7.95;3.17;;;;;;;;;;10268570;28;20041;-70
2022/06/26 21:34:06;;;;;;;8.57;3.70;;;;;;;;;;10293587;28;20048;-73
2022/06/26 21:39:06;;;;;;;7.70;3.33;;;;;;;;;;10269628;28;20034;-72
2022/06/26 21:44:06;;;;;;;7.38;3.17;;;;;;;;;;10271320;28;20064;-75
2022/06/26 21:49:07;;;;;;;4.22;2.97;;;;;;;;;;10303205;28;20029;-70
2022/06/26 21:54:07;;;;;;;7.35;3.38;;;;;;;;;;10271111;28;20027;-74
2022/06/26 21:59:07;;;;;;;4.30;2.90;;;;;;;;;;10271800;28;20108;-70
2022/06/26 22:04:08;;;;;;;14.32;3.92;;;;;;;;;;10270608;28;20681;-73
2022/06/26 22:09:09;;;;;;;6.15;2.83;;;;;;;;;;10270663;28;20027;-74
2022/06/26 22:14:09;;;;;;;6.53;3.63;;;;;;;;;;10269881;28;20014;-71
2022/06/26 22:19:09;;;;;;;5.83;3.33;;;;;;;;;;10269521;28;20030;-73
2022/06/26 22:24:09;;;;;;;5.07;2.97;;;;;;;;;;10271884;28;20350;-73
2022/06/26 22:29:10;;;;;;;10.10;3.92;;;;;;;;;;10276049;28;20019;-68
2022/06/26 22:34:10;;;;;;;7.13;3.50;;;;;;;;;;10287180;28;20058;-73
2022/06/26 22:39:10;;;;;;;7.32;4.07;;;;;;;;;;10277494;28;20026;-69
2022/06/26 22:44:10;;;;;;;8.30;3.83;;;;;;;;;;10279166;28;20027;-70
2022/06/26 22:49:11;;;;;;;8.68;3.60;;;;;;;;;;10276959;28;20023;-73
2022/06/26 22:54:11;;;;;;;5.68;3.03;;;;;;;;;;10275809;28;20046;-74
2022/06/26 22:59:11;;;;;;;7.43;3.42;;;;;;;;;;10309801;28;20038;-75
2022/06/26 23:04:11;;;;;;;5.00;3.90;;;;;;;;;;10276332;28;20042;-72
2022/06/26 23:09:12;;;;;;;5.10;3.55;;;;;;;;;;10277380;28;20274;-74
2022/06/26 23:14:12;;;;;;;8.20;4.20;;;;;;;;;;10276266;28;20030;-73
2022/06/26 23:19:12;;;;;;;8.13;3.53;;;;;;;;;;10276498;28;20025;-72
2022/06/26 23:24:13;;;;;;;10.27;4.00;;;;;;;;;;10274670;28;20019;-73
2022/06/26 23:29:13;;;;;;;19.35;10.02;;;;;;;;;;10276643;28;20026;-70
2022/06/26 23:34:14;;;;;;;7.47;3.90;;;;;;;;;;10300552;28;20170;-71
2022/06/26 23:39:14;;;;;;;7.32;3.70;;;;;;;;;;10273760;28;20023;-73
2022/06/26 23:44:14;;;;;;;7.25;3.50;;;;;;;;;;10275340;28;20022;-74
2022/06/26 23:49:14;;;;;;;6.32;4.70;;;;;;;;;;10307776;28;20489;-74
2022/06/26 23:54:15;;;;;;;7.00;4.03;;;;;;;;;;10274059;28;20022;-75
2022/06/26 23:59:15;;;;;;;6.45;3.83;;;;;;;;;;10276476;28;20031;-74
